Airfield :
LOGIN :

Register | Disclaimer

   EN    FR    IT 

 










Legend :    VFR   Marginal VFR   IFR   Intensive IFR   Very Intensive IFR
Visi :
Ceiling :
>= 8 km
>= 3000ft
5 to 8 km
1000 to 3000 ft
1500m to 5 km
500 to 1000 ft
800 to 1500m
200 to 500 ft
< 800m
< 200 ft
Symbols :   Thunderstorms  Fog  Heavy snow  Heavy precipitations  Wind > 20 kt
SIGMETs :     Misc.  Thunderstorms  Icing  Turbulence  Mountain Waves  Volcanic Ashes






- Airport Elevation : 302 ft
- IATA code : CGN


EDDK - Cologne Bonn

CURRENT METAR :
  • 071850Z 21006KT 9999 FEW036 BKN040 08/04 Q1016 NOSIG

EXPIRED METARs :
  • 071820Z 23008KT 9999 BKN040 09/03 Q1016 NOSIG
  • 071750Z 23010KT 9999 OVC036 09/03 Q1016 NOSIG
  • 071720Z 24011KT 9999 FEW032 BKN038 09/04 Q1015 NOSIG
  • 071650Z 24009KT 9999 FEW032 BKN042 09/04 Q1016 NOSIG
  • 071620Z 24008KT 9999 FEW032 BKN041 OVC046 09/05 Q1015 NOSIG

TAF TAF EDDK
Valid from the 07 at 18:00 until the 09 at 00:00 UTC


071700Z 0718/0824 24009KT 9999 BKN040
BECMG 0720/0723 18007KT
BECMG 0806/0808 18012KT
TEMPO 0809/0812 23015G25KT RA
TEMPO 0812/0816 24015G25KT
BECMG 0821/0824 23015G25KT



MET'MAP, your aeronautical weather chart ! - Copyright ORBIFLY December 2007 - Disclaimer

ORBIFLY MET'MAP TEAM :

Programming & Development : Alexandra Zaïnal
Concept & original design : Baudouin d'Aumeries
Assistance for programming : Marc-Olivier Méhu
Technical & hardware support : Manuel Goepfert

Contact : metmap@orbifly.com




SOURCES & CREDITS :

   NOAA